sensor_id;sensor_type;location;lat;lon;timestamp;P1;durP1;ratioP1;P2;durP2;ratioP2
45254;SDS011;30989;52.078;21.014;2023-07-20T00:00:26;2.72;;;1.23;;
45254;SDS011;30989;52.078;21.014;2023-07-20T00:02:52;4.93;;;1.75;;
45254;SDS011;30989;52.078;21.014;2023-07-20T00:05:17;3.47;;;1.33;;
45254;SDS011;30989;52.078;21.014;2023-07-20T00:07:49;3.00;;;1.40;;
45254;SDS011;30989;52.078;21.014;2023-07-20T00:10:17;2.97;;;1.23;;
45254;SDS011;30989;52.078;21.014;2023-07-20T00:12:42;5.20;;;1.40;;
45254;SDS011;30989;52.078;21.014;2023-07-20T00:15:12;3.35;;;1.38;;
45254;SDS011;30989;52.078;21.014;2023-07-20T00:17:38;4.68;;;1.15;;
45254;SDS011;30989;52.078;21.014;2023-07-20T00:20:05;3.83;;;1.50;;
45254;SDS011;30989;52.078;21.014;2023-07-20T00:22:31;3.80;;;1.13;;
45254;SDS011;30989;52.078;21.014;2023-07-20T00:24:57;4.32;;;1.20;;
45254;SDS011;30989;52.078;21.014;2023-07-20T00:27:22;5.13;;;1.50;;
45254;SDS011;30989;52.078;21.014;2023-07-20T00:29:48;4.07;;;1.38;;
45254;SDS011;30989;52.078;21.014;2023-07-20T00:32:13;3.63;;;1.52;;
45254;SDS011;30989;52.078;21.014;2023-07-20T00:34:38;4.32;;;1.50;;
45254;SDS011;30989;52.078;21.014;2023-07-20T00:37:04;2.53;;;1.20;;
45254;SDS011;30989;52.078;21.014;2023-07-20T00:39:29;4.32;;;1.48;;
45254;SDS011;30989;52.078;21.014;2023-07-20T00:41:55;2.67;;;1.27;;
45254;SDS011;30989;52.078;21.014;2023-07-20T00:44:20;3.80;;;1.60;;
45254;SDS011;30989;52.078;21.014;2023-07-20T00:46:46;7.50;;;1.88;;
45254;SDS011;30989;52.078;21.014;2023-07-20T00:49:11;4.07;;;1.30;;
45254;SDS011;30989;52.078;21.014;2023-07-20T00:51:37;3.42;;;1.42;;
45254;SDS011;30989;52.078;21.014;2023-07-20T00:54:02;5.07;;;1.55;;
45254;SDS011;30989;52.078;21.014;2023-07-20T00:56:28;3.65;;;1.83;;
45254;SDS011;30989;52.078;21.014;2023-07-20T00:58:53;4.72;;;2.00;;
45254;SDS011;30989;52.078;21.014;2023-07-20T01:01:20;3.75;;;1.40;;
45254;SDS011;30989;52.078;21.014;2023-07-20T01:03:47;4.00;;;1.45;;
45254;SDS011;30989;52.078;21.014;2023-07-20T01:14:32;4.13;;;1.30;;
45254;SDS011;30989;52.078;21.014;2023-07-20T01:16:59;3.33;;;1.30;;
45254;SDS011;30989;52.078;21.014;2023-07-20T01:19:25;5.40;;;1.88;;
45254;SDS011;30989;52.078;21.014;2023-07-20T01:21:53;3.83;;;1.52;;
45254;SDS011;30989;52.078;21.014;2023-07-20T01:30:35;9.93;;;1.60;;
45254;SDS011;30989;52.078;21.014;2023-07-20T01:33:16;5.82;;;1.55;;
45254;SDS011;30989;52.078;21.014;2023-07-20T01:35:43;3.40;;;1.70;;
45254;SDS011;30989;52.078;21.014;2023-07-20T01:38:12;3.42;;;1.40;;
45254;SDS011;30989;52.078;21.014;2023-07-20T01:40:39;4.20;;;1.63;;
45254;SDS011;30989;52.078;21.014;2023-07-20T01:43:05;2.47;;;1.13;;
45254;SDS011;30989;52.078;21.014;2023-07-20T01:45:31;3.70;;;1.40;;
45254;SDS011;30989;52.078;21.014;2023-07-20T01:47:56;4.75;;;1.40;;
45254;SDS011;30989;52.078;21.014;2023-07-20T01:50:22;4.63;;;1.73;;
45254;SDS011;30989;52.078;21.014;2023-07-20T01:52:47;4.13;;;1.77;;
45254;SDS011;30989;52.078;21.014;2023-07-20T01:55:13;3.85;;;1.63;;
45254;SDS011;30989;52.078;21.014;2023-07-20T01:57:38;4.75;;;1.48;;
45254;SDS011;30989;52.078;21.014;2023-07-20T02:00:04;3.63;;;1.58;;
45254;SDS011;30989;52.078;21.014;2023-07-20T02:02:39;4.03;;;1.70;;
45254;SDS011;30989;52.078;21.014;2023-07-20T02:05:06;5.03;;;1.73;;
45254;SDS011;30989;52.078;21.014;2023-07-20T02:07:32;3.05;;;1.23;;
45254;SDS011;30989;52.078;21.014;2023-07-20T02:09:58;3.55;;;1.30;;
45254;SDS011;30989;52.078;21.014;2023-07-20T02:12:23;5.93;;;1.55;;
45254;SDS011;30989;52.078;21.014;2023-07-20T02:14:49;2.35;;;1.15;;
45254;SDS011;30989;52.078;21.014;2023-07-20T02:17:16;4.35;;;1.60;;
45254;SDS011;30989;52.078;21.014;2023-07-20T02:19:41;5.35;;;1.50;;
45254;SDS011;30989;52.078;21.014;2023-07-20T02:22:07;7.75;;;1.75;;
45254;SDS011;30989;52.078;21.014;2023-07-20T02:24:33;4.15;;;1.88;;
45254;SDS011;30989;52.078;21.014;2023-07-20T02:26:59;5.47;;;1.80;;
45254;SDS011;30989;52.078;21.014;2023-07-20T02:29:24;4.13;;;1.55;;
45254;SDS011;30989;52.078;21.014;2023-07-20T02:31:49;4.35;;;1.40;;
45254;SDS011;30989;52.078;21.014;2023-07-20T02:34:15;4.63;;;1.70;;
45254;SDS011;30989;52.078;21.014;2023-07-20T02:36:40;4.15;;;1.50;;
45254;SDS011;30989;52.078;21.014;2023-07-20T02:39:07;4.00;;;1.70;;
45254;SDS011;30989;52.078;21.014;2023-07-20T02:41:33;8.60;;;2.28;;
45254;SDS011;30989;52.078;21.014;2023-07-20T02:43:59;3.53;;;1.30;;
45254;SDS011;30989;52.078;21.014;2023-07-20T02:46:25;4.40;;;1.60;;
45254;SDS011;30989;52.078;21.014;2023-07-20T02:48:50;2.85;;;1.30;;
45254;SDS011;30989;52.078;21.014;2023-07-20T02:51:16;3.63;;;1.83;;
45254;SDS011;30989;52.078;21.014;2023-07-20T02:53:41;3.28;;;1.30;;
45254;SDS011;30989;52.078;21.014;2023-07-20T02:56:07;3.55;;;1.75;;
45254;SDS011;30989;52.078;21.014;2023-07-20T02:58:33;3.22;;;1.42;;
45254;SDS011;30989;52.078;21.014;2023-07-20T03:01:02;3.97;;;1.95;;
45254;SDS011;30989;52.078;21.014;2023-07-20T03:03:27;3.60;;;1.75;;
45254;SDS011;30989;52.078;21.014;2023-07-20T03:05:53;10.90;;;1.88;;
45254;SDS011;30989;52.078;21.014;2023-07-20T03:08:21;10.57;;;5.10;;
45254;SDS011;30989;52.078;21.014;2023-07-20T03:10:47;5.55;;;2.08;;
45254;SDS011;30989;52.078;21.014;2023-07-20T03:13:12;5.20;;;2.15;;
45254;SDS011;30989;52.078;21.014;2023-07-20T03:15:39;6.68;;;2.10;;
45254;SDS011;30989;52.078;21.014;2023-07-20T03:18:05;3.80;;;1.70;;
45254;SDS011;30989;52.078;21.014;2023-07-20T03:20:31;6.63;;;2.47;;
45254;SDS011;30989;52.078;21.014;2023-07-20T03:22:56;8.18;;;2.40;;
45254;SDS011;30989;52.078;21.014;2023-07-20T03:25:22;6.97;;;1.83;;
45254;SDS011;30989;52.078;21.014;2023-07-20T03:27:48;4.28;;;1.73;;
45254;SDS011;30989;52.078;21.014;2023-07-20T03:30:13;7.75;;;2.55;;
45254;SDS011;30989;52.078;21.014;2023-07-20T03:32:39;5.78;;;2.42;;
45254;SDS011;30989;52.078;21.014;2023-07-20T03:35:05;4.50;;;1.70;;
45254;SDS011;30989;52.078;21.014;2023-07-20T03:37:31;6.43;;;2.38;;
45254;SDS011;30989;52.078;21.014;2023-07-20T03:39:56;4.90;;;1.92;;
45254;SDS011;30989;52.078;21.014;2023-07-20T03:42:22;5.10;;;2.22;;
45254;SDS011;30989;52.078;21.014;2023-07-20T03:44:48;5.75;;;2.58;;
45254;SDS011;30989;52.078;21.014;2023-07-20T03:47:13;7.72;;;2.50;;
45254;SDS011;30989;52.078;21.014;2023-07-20T03:49:39;7.00;;;2.13;;
45254;SDS011;30989;52.078;21.014;2023-07-20T03:52:04;6.72;;;2.33;;
45254;SDS011;30989;52.078;21.014;2023-07-20T03:54:30;10.20;;;2.95;;
45254;SDS011;30989;52.078;21.014;2023-07-20T03:56:55;9.80;;;2.60;;
45254;SDS011;30989;52.078;21.014;2023-07-20T03:59:21;7.55;;;2.70;;
45254;SDS011;30989;52.078;21.014;2023-07-20T04:01:46;4.35;;;2.15;;
45254;SDS011;30989;52.078;21.014;2023-07-20T04:04:13;7.50;;;2.40;;
45254;SDS011;30989;52.078;21.014;2023-07-20T04:06:41;7.35;;;2.75;;
45254;SDS011;30989;52.078;21.014;2023-07-20T04:09:09;8.20;;;2.92;;
45254;SDS011;30989;52.078;21.014;2023-07-20T04:11:36;4.32;;;2.28;;
45254;SDS011;30989;52.078;21.014;2023-07-20T04:14:02;5.78;;;3.08;;
45254;SDS011;30989;52.078;21.014;2023-07-20T04:16:28;9.52;;;3.75;;
45254;SDS011;30989;52.078;21.014;2023-07-20T04:18:56;9.85;;;2.70;;
45254;SDS011;30989;52.078;21.014;2023-07-20T04:21:23;7.80;;;3.20;;
45254;SDS011;30989;52.078;21.014;2023-07-20T04:23:50;6.25;;;2.35;;
45254;SDS011;30989;52.078;21.014;2023-07-20T04:26:17;6.38;;;2.40;;
45254;SDS011;30989;52.078;21.014;2023-07-20T04:28:42;9.65;;;2.67;;
45254;SDS011;30989;52.078;21.014;2023-07-20T04:31:15;4.93;;;2.20;;
45254;SDS011;30989;52.078;21.014;2023-07-20T04:33:42;5.05;;;2.67;;
45254;SDS011;30989;52.078;21.014;2023-07-20T04:36:08;4.97;;;2.35;;
45254;SDS011;30989;52.078;21.014;2023-07-20T04:38:34;5.00;;;2.25;;
45254;SDS011;30989;52.078;21.014;2023-07-20T04:41:08;4.90;;;2.38;;
45254;SDS011;30989;52.078;21.014;2023-07-20T04:43:42;6.40;;;2.83;;
45254;SDS011;30989;52.078;21.014;2023-07-20T04:46:12;7.85;;;2.38;;
45254;SDS011;30989;52.078;21.014;2023-07-20T04:48:38;6.72;;;2.65;;
45254;SDS011;30989;52.078;21.014;2023-07-20T04:51:05;5.05;;;2.38;;
45254;SDS011;30989;52.078;21.014;2023-07-20T04:53:31;6.82;;;1.92;;
45254;SDS011;30989;52.078;21.014;2023-07-20T04:55:57;6.20;;;2.85;;
45254;SDS011;30989;52.078;21.014;2023-07-20T04:58:24;7.72;;;3.35;;
45254;SDS011;30989;52.078;21.014;2023-07-20T05:00:51;7.22;;;2.50;;
45254;SDS011;30989;52.078;21.014;2023-07-20T05:03:17;8.50;;;2.72;;
45254;SDS011;30989;52.078;21.014;2023-07-20T05:05:42;9.70;;;3.55;;
45254;SDS011;30989;52.078;21.014;2023-07-20T05:08:09;7.47;;;2.90;;
45254;SDS011;30989;52.078;21.014;2023-07-20T05:10:34;7.30;;;3.03;;
45254;SDS011;30989;52.078;21.014;2023-07-20T05:13:00;7.35;;;2.90;;
45254;SDS011;30989;52.078;21.014;2023-07-20T05:15:26;5.80;;;2.85;;
45254;SDS011;30989;52.078;21.014;2023-07-20T05:17:52;7.35;;;2.92;;
45254;SDS011;30989;52.078;21.014;2023-07-20T05:20:18;7.63;;;2.60;;
45254;SDS011;30989;52.078;21.014;2023-07-20T05:22:44;6.13;;;2.92;;
45254;SDS011;30989;52.078;21.014;2023-07-20T05:25:10;6.40;;;3.05;;
45254;SDS011;30989;52.078;21.014;2023-07-20T05:27:36;5.88;;;2.65;;
45254;SDS011;30989;52.078;21.014;2023-07-20T05:30:03;5.65;;;3.20;;
45254;SDS011;30989;52.078;21.014;2023-07-20T05:32:29;9.52;;;3.53;;
45254;SDS011;30989;52.078;21.014;2023-07-20T05:34:55;4.28;;;2.28;;
45254;SDS011;30989;52.078;21.014;2023-07-20T05:37:20;10.10;;;3.03;;
45254;SDS011;30989;52.078;21.014;2023-07-20T05:39:46;11.77;;;2.53;;
45254;SDS011;30989;52.078;21.014;2023-07-20T05:42:12;7.60;;;2.85;;
45254;SDS011;30989;52.078;21.014;2023-07-20T05:44:37;5.90;;;2.40;;
45254;SDS011;30989;52.078;21.014;2023-07-20T05:47:03;4.72;;;2.60;;
45254;SDS011;30989;52.078;21.014;2023-07-20T05:49:28;4.68;;;2.60;;
45254;SDS011;30989;52.078;21.014;2023-07-20T05:51:54;6.35;;;2.17;;
45254;SDS011;30989;52.078;21.014;2023-07-20T05:54:21;5.68;;;2.83;;
45254;SDS011;30989;52.078;21.014;2023-07-20T05:56:46;8.20;;;3.10;;
45254;SDS011;30989;52.078;21.014;2023-07-20T05:59:12;6.93;;;2.83;;
45254;SDS011;30989;52.078;21.014;2023-07-20T06:01:38;7.78;;;3.20;;
45254;SDS011;30989;52.078;21.014;2023-07-20T06:04:03;5.30;;;2.50;;
45254;SDS011;30989;52.078;21.014;2023-07-20T06:06:29;6.30;;;2.65;;
45254;SDS011;30989;52.078;21.014;2023-07-20T06:08:54;5.22;;;2.42;;
45254;SDS011;30989;52.078;21.014;2023-07-20T06:11:20;7.90;;;2.88;;
45254;SDS011;30989;52.078;21.014;2023-07-20T06:13:45;6.75;;;2.53;;
45254;SDS011;30989;52.078;21.014;2023-07-20T06:16:11;6.18;;;1.95;;
45254;SDS011;30989;52.078;21.014;2023-07-20T06:18:36;4.80;;;2.00;;
45254;SDS011;30989;52.078;21.014;2023-07-20T06:21:02;6.07;;;2.20;;
45254;SDS011;30989;52.078;21.014;2023-07-20T06:23:27;8.02;;;2.30;;
45254;SDS011;30989;52.078;21.014;2023-07-20T06:25:53;8.18;;;2.35;;
45254;SDS011;30989;52.078;21.014;2023-07-20T06:28:18;6.82;;;2.65;;
45254;SDS011;30989;52.078;21.014;2023-07-20T06:30:44;4.82;;;2.80;;
45254;SDS011;30989;52.078;21.014;2023-07-20T06:33:09;9.10;;;2.72;;
45254;SDS011;30989;52.078;21.014;2023-07-20T06:35:34;5.03;;;2.50;;
45254;SDS011;30989;52.078;21.014;2023-07-20T06:38:01;5.38;;;2.58;;
45254;SDS011;30989;52.078;21.014;2023-07-20T06:40:28;7.45;;;2.78;;
45254;SDS011;30989;52.078;21.014;2023-07-20T06:42:54;4.88;;;2.45;;
45254;SDS011;30989;52.078;21.014;2023-07-20T06:45:21;6.95;;;3.15;;
45254;SDS011;30989;52.078;21.014;2023-07-20T06:47:47;5.78;;;1.95;;
45254;SDS011;30989;52.078;21.014;2023-07-20T06:50:12;6.40;;;2.75;;
45254;SDS011;30989;52.078;21.014;2023-07-20T06:52:38;7.15;;;2.75;;
45254;SDS011;30989;52.078;21.014;2023-07-20T06:55:05;7.72;;;2.80;;
45254;SDS011;30989;52.078;21.014;2023-07-20T06:57:31;6.53;;;2.80;;
45254;SDS011;30989;52.078;21.014;2023-07-20T06:59:57;5.18;;;2.53;;
45254;SDS011;30989;52.078;21.014;2023-07-20T07:02:22;5.10;;;2.50;;
45254;SDS011;30989;52.078;21.014;2023-07-20T07:04:47;8.45;;;2.80;;
45254;SDS011;30989;52.078;21.014;2023-07-20T07:07:13;7.80;;;2.95;;
45254;SDS011;30989;52.078;21.014;2023-07-20T07:09:40;3.45;;;2.38;;
45254;SDS011;30989;52.078;21.014;2023-07-20T07:12:05;6.75;;;2.92;;
45254;SDS011;30989;52.078;21.014;2023-07-20T07:14:31;10.48;;;5.28;;
45254;SDS011;30989;52.078;21.014;2023-07-20T07:16:57;7.22;;;3.25;;
45254;SDS011;30989;52.078;21.014;2023-07-20T07:19:22;5.95;;;2.67;;
45254;SDS011;30989;52.078;21.014;2023-07-20T07:21:48;6.25;;;3.60;;
45254;SDS011;30989;52.078;21.014;2023-07-20T07:24:13;6.60;;;3.22;;
45254;SDS011;30989;52.078;21.014;2023-07-20T07:26:39;5.25;;;2.67;;
45254;SDS011;30989;52.078;21.014;2023-07-20T07:29:04;8.52;;;3.05;;
45254;SDS011;30989;52.078;21.014;2023-07-20T07:31:30;7.25;;;3.05;;
45254;SDS011;30989;52.078;21.014;2023-07-20T07:33:56;7.63;;;2.88;;
45254;SDS011;30989;52.078;21.014;2023-07-20T07:36:22;8.35;;;3.28;;
45254;SDS011;30989;52.078;21.014;2023-07-20T07:38:49;7.47;;;3.70;;
45254;SDS011;30989;52.078;21.014;2023-07-20T07:41:15;7.95;;;4.13;;
45254;SDS011;30989;52.078;21.014;2023-07-20T07:43:41;10.60;;;3.70;;
45254;SDS011;30989;52.078;21.014;2023-07-20T07:46:06;7.93;;;3.92;;
45254;SDS011;30989;52.078;21.014;2023-07-20T07:48:32;9.68;;;4.20;;
45254;SDS011;30989;52.078;21.014;2023-07-20T07:50:57;7.90;;;3.75;;
45254;SDS011;30989;52.078;21.014;2023-07-20T07:53:23;7.72;;;3.42;;
45254;SDS011;30989;52.078;21.014;2023-07-20T07:55:50;9.18;;;3.42;;
45254;SDS011;30989;52.078;21.014;2023-07-20T07:58:16;8.35;;;3.13;;
45254;SDS011;30989;52.078;21.014;2023-07-20T08:00:41;6.75;;;3.30;;
45254;SDS011;30989;52.078;21.014;2023-07-20T08:03:08;8.32;;;4.15;;
45254;SDS011;30989;52.078;21.014;2023-07-20T08:05:34;13.93;;;3.22;;
45254;SDS011;30989;52.078;21.014;2023-07-20T08:08:00;7.75;;;3.42;;
45254;SDS011;30989;52.078;21.014;2023-07-20T08:10:29;10.10;;;3.72;;
45254;SDS011;30989;52.078;21.014;2023-07-20T08:12:55;6.90;;;2.85;;
45254;SDS011;30989;52.078;21.014;2023-07-20T08:15:20;6.95;;;2.90;;
45254;SDS011;30989;52.078;21.014;2023-07-20T08:17:46;6.45;;;3.45;;
45254;SDS011;30989;52.078;21.014;2023-07-20T08:20:14;8.43;;;3.75;;
45254;SDS011;30989;52.078;21.014;2023-07-20T08:22:42;6.45;;;3.22;;
45254;SDS011;30989;52.078;21.014;2023-07-20T08:25:08;11.52;;;3.92;;
45254;SDS011;30989;52.078;21.014;2023-07-20T08:27:34;8.25;;;3.78;;
45254;SDS011;30989;52.078;21.014;2023-07-20T08:30:00;6.97;;;3.30;;
45254;SDS011;30989;52.078;21.014;2023-07-20T08:32:26;5.18;;;2.67;;
45254;SDS011;30989;52.078;21.014;2023-07-20T08:34:51;10.40;;;3.92;;
45254;SDS011;30989;52.078;21.014;2023-07-20T08:37:17;8.90;;;3.17;;
45254;SDS011;30989;52.078;21.014;2023-07-20T08:39:43;8.50;;;3.95;;
45254;SDS011;30989;52.078;21.014;2023-07-20T08:42:09;8.77;;;3.95;;
45254;SDS011;30989;52.078;21.014;2023-07-20T08:44:36;7.97;;;4.60;;
45254;SDS011;30989;52.078;21.014;2023-07-20T08:47:03;10.48;;;3.80;;
45254;SDS011;30989;52.078;21.014;2023-07-20T08:49:31;7.57;;;3.85;;
45254;SDS011;30989;52.078;21.014;2023-07-20T08:51:57;6.32;;;2.88;;
45254;SDS011;30989;52.078;21.014;2023-07-20T08:54:24;5.43;;;2.88;;
45254;SDS011;30989;52.078;21.014;2023-07-20T08:56:52;7.80;;;3.35;;
45254;SDS011;30989;52.078;21.014;2023-07-20T08:59:19;5.65;;;2.75;;
45254;SDS011;30989;52.078;21.014;2023-07-20T09:01:48;7.05;;;2.53;;
45254;SDS011;30989;52.078;21.014;2023-07-20T09:04:14;6.72;;;3.00;;
45254;SDS011;30989;52.078;21.014;2023-07-20T09:06:41;6.03;;;2.53;;
45254;SDS011;30989;52.078;21.014;2023-07-20T09:09:07;8.43;;;2.53;;
45254;SDS011;30989;52.078;21.014;2023-07-20T09:11:32;8.35;;;3.10;;
45254;SDS011;30989;52.078;21.014;2023-07-20T09:14:04;4.90;;;2.30;;
45254;SDS011;30989;52.078;21.014;2023-07-20T09:18:57;8.20;;;3.03;;
45254;SDS011;30989;52.078;21.014;2023-07-20T09:21:23;6.60;;;3.42;;
45254;SDS011;30989;52.078;21.014;2023-07-20T09:23:48;6.70;;;3.40;;
45254;SDS011;30989;52.078;21.014;2023-07-20T09:26:18;4.95;;;2.90;;
45254;SDS011;30989;52.078;21.014;2023-07-20T09:28:47;6.57;;;2.60;;
45254;SDS011;30989;52.078;21.014;2023-07-20T09:31:20;8.65;;;2.80;;
45254;SDS011;30989;52.078;21.014;2023-07-20T09:33:46;6.47;;;3.42;;
45254;SDS011;30989;52.078;21.014;2023-07-20T09:36:13;6.93;;;3.08;;
45254;SDS011;30989;52.078;21.014;2023-07-20T09:38:41;5.28;;;2.60;;
45254;SDS011;30989;52.078;21.014;2023-07-20T09:41:08;7.57;;;2.20;;
45254;SDS011;30989;52.078;21.014;2023-07-20T09:43:38;5.32;;;2.28;;
45254;SDS011;30989;52.078;21.014;2023-07-20T09:46:04;6.43;;;2.25;;
45254;SDS011;30989;52.078;21.014;2023-07-20T09:48:30;4.18;;;1.80;;
45254;SDS011;30989;52.078;21.014;2023-07-20T09:50:55;5.00;;;2.20;;
45254;SDS011;30989;52.078;21.014;2023-07-20T09:53:21;6.13;;;2.58;;
45254;SDS011;30989;52.078;21.014;2023-07-20T09:55:49;3.58;;;1.98;;
45254;SDS011;30989;52.078;21.014;2023-07-20T09:58:15;6.60;;;2.13;;
45254;SDS011;30989;52.078;21.014;2023-07-20T10:00:42;3.92;;;2.17;;
45254;SDS011;30989;52.078;21.014;2023-07-20T10:03:13;3.95;;;1.92;;
45254;SDS011;30989;52.078;21.014;2023-07-20T10:05:43;3.70;;;1.70;;
45254;SDS011;30989;52.078;21.014;2023-07-20T10:08:12;3.80;;;1.90;;
45254;SDS011;30989;52.078;21.014;2023-07-20T10:10:41;4.75;;;1.90;;
45254;SDS011;30989;52.078;21.014;2023-07-20T10:13:12;4.90;;;1.65;;
45254;SDS011;30989;52.078;21.014;2023-07-20T10:15:53;5.72;;;1.90;;
45254;SDS011;30989;52.078;21.014;2023-07-20T10:18:46;3.55;;;1.35;;
45254;SDS011;30989;52.078;21.014;2023-07-20T10:21:10;4.43;;;2.00;;
45254;SDS011;30989;52.078;21.014;2023-07-20T10:23:36;4.30;;;1.90;;
45254;SDS011;30989;52.078;21.014;2023-07-20T10:26:03;3.25;;;1.52;;
45254;SDS011;30989;52.078;21.014;2023-07-20T10:28:29;3.95;;;1.45;;
45254;SDS011;30989;52.078;21.014;2023-07-20T10:30:54;4.70;;;1.80;;
45254;SDS011;30989;52.078;21.014;2023-07-20T10:33:20;2.40;;;1.20;;
45254;SDS011;30989;52.078;21.014;2023-07-20T10:35:55;3.13;;;1.40;;
45254;SDS011;30989;52.078;21.014;2023-07-20T10:41:32;6.05;;;1.98;;
45254;SDS011;30989;52.078;21.014;2023-07-20T10:44:06;3.65;;;1.73;;
45254;SDS011;30989;52.078;21.014;2023-07-20T10:49:05;4.03;;;1.85;;
45254;SDS011;30989;52.078;21.014;2023-07-20T10:51:38;4.53;;;2.03;;
45254;SDS011;30989;52.078;21.014;2023-07-20T10:54:09;2.35;;;1.20;;
45254;SDS011;30989;52.078;21.014;2023-07-20T10:56:49;4.78;;;1.83;;
45254;SDS011;30989;52.078;21.014;2023-07-20T10:59:18;4.35;;;1.38;;
45254;SDS011;30989;52.078;21.014;2023-07-20T11:01:47;4.10;;;1.15;;
45254;SDS011;30989;52.078;21.014;2023-07-20T11:04:14;2.75;;;1.30;;
45254;SDS011;30989;52.078;21.014;2023-07-20T11:06:45;4.40;;;2.40;;
45254;SDS011;30989;52.078;21.014;2023-07-20T11:09:22;4.65;;;1.50;;
45254;SDS011;30989;52.078;21.014;2023-07-20T11:11:50;4.47;;;1.70;;
45254;SDS011;30989;52.078;21.014;2023-07-20T11:14:23;4.60;;;1.48;;
45254;SDS011;30989;52.078;21.014;2023-07-20T11:16:50;7.22;;;1.63;;
45254;SDS011;30989;52.078;21.014;2023-07-20T11:19:20;4.47;;;1.58;;
45254;SDS011;30989;52.078;21.014;2023-07-20T11:24:17;2.88;;;1.20;;
45254;SDS011;30989;52.078;21.014;2023-07-20T11:26:43;5.38;;;1.33;;
45254;SDS011;30989;52.078;21.014;2023-07-20T11:29:10;5.10;;;1.27;;
45254;SDS011;30989;52.078;21.014;2023-07-20T11:31:41;3.42;;;1.33;;
45254;SDS011;30989;52.078;21.014;2023-07-20T11:34:09;2.40;;;1.23;;
45254;SDS011;30989;52.078;21.014;2023-07-20T11:36:37;3.05;;;1.15;;
45254;SDS011;30989;52.078;21.014;2023-07-20T11:39:03;4.57;;;1.67;;
45254;SDS011;30989;52.078;21.014;2023-07-20T11:41:30;2.95;;;1.50;;
45254;SDS011;30989;52.078;21.014;2023-07-20T11:43:56;3.15;;;1.50;;
45254;SDS011;30989;52.078;21.014;2023-07-20T11:46:22;3.67;;;1.27;;
45254;SDS011;30989;52.078;21.014;2023-07-20T11:48:48;2.22;;;1.00;;
45254;SDS011;30989;52.078;21.014;2023-07-20T11:51:14;2.42;;;1.13;;
45254;SDS011;30989;52.078;21.014;2023-07-20T11:53:41;3.45;;;1.50;;
45254;SDS011;30989;52.078;21.014;2023-07-20T11:56:08;2.95;;;0.98;;
45254;SDS011;30989;52.078;21.014;2023-07-20T11:58:35;3.05;;;1.40;;
45254;SDS011;30989;52.078;21.014;2023-07-20T12:01:01;1.98;;;1.00;;
45254;SDS011;30989;52.078;21.014;2023-07-20T12:03:27;2.75;;;1.50;;
45254;SDS011;30989;52.078;21.014;2023-07-20T12:05:52;2.13;;;1.10;;
45254;SDS011;30989;52.078;21.014;2023-07-20T12:08:18;4.43;;;1.35;;
45254;SDS011;30989;52.078;21.014;2023-07-20T12:10:43;2.60;;;1.20;;
45254;SDS011;30989;52.078;21.014;2023-07-20T12:13:09;3.63;;;1.33;;
45254;SDS011;30989;52.078;21.014;2023-07-20T12:15:37;2.30;;;1.30;;
45254;SDS011;30989;52.078;21.014;2023-07-20T12:18:02;3.28;;;1.45;;
45254;SDS011;30989;52.078;21.014;2023-07-20T12:20:32;4.90;;;1.02;;
45254;SDS011;30989;52.078;21.014;2023-07-20T12:23:02;3.83;;;1.40;;
45254;SDS011;30989;52.078;21.014;2023-07-20T12:25:36;4.43;;;1.40;;
45254;SDS011;30989;52.078;21.014;2023-07-20T12:28:10;3.75;;;1.40;;
45254;SDS011;30989;52.078;21.014;2023-07-20T12:30:41;4.78;;;1.05;;
45254;SDS011;30989;52.078;21.014;2023-07-20T12:33:07;2.00;;;1.05;;
45254;SDS011;30989;52.078;21.014;2023-07-20T12:35:33;5.03;;;1.30;;
45254;SDS011;30989;52.078;21.014;2023-07-20T12:37:59;3.13;;;1.20;;
45254;SDS011;30989;52.078;21.014;2023-07-20T12:40:25;2.75;;;1.63;;
45254;SDS011;30989;52.078;21.014;2023-07-20T12:42:51;2.30;;;1.23;;
45254;SDS011;30989;52.078;21.014;2023-07-20T12:45:16;2.20;;;1.25;;
45254;SDS011;30989;52.078;21.014;2023-07-20T12:47:45;2.72;;;1.20;;
45254;SDS011;30989;52.078;21.014;2023-07-20T12:50:11;2.53;;;1.30;;
45254;SDS011;30989;52.078;21.014;2023-07-20T12:52:37;3.13;;;1.00;;
45254;SDS011;30989;52.078;21.014;2023-07-20T12:55:04;2.35;;;1.20;;
45254;SDS011;30989;52.078;21.014;2023-07-20T12:57:31;6.57;;;1.58;;
45254;SDS011;30989;52.078;21.014;2023-07-20T12:59:56;3.58;;;1.40;;
45254;SDS011;30989;52.078;21.014;2023-07-20T13:02:22;2.42;;;1.20;;
45254;SDS011;30989;52.078;21.014;2023-07-20T13:04:48;5.38;;;1.30;;
45254;SDS011;30989;52.078;21.014;2023-07-20T13:07:13;4.20;;;2.00;;
45254;SDS011;30989;52.078;21.014;2023-07-20T13:09:39;5.05;;;1.38;;
45254;SDS011;30989;52.078;21.014;2023-07-20T13:12:04;3.15;;;1.33;;
45254;SDS011;30989;52.078;21.014;2023-07-20T13:14:30;3.72;;;1.38;;
45254;SDS011;30989;52.078;21.014;2023-07-20T13:16:56;4.97;;;1.45;;
45254;SDS011;30989;52.078;21.014;2023-07-20T13:19:21;3.03;;;1.50;;
45254;SDS011;30989;52.078;21.014;2023-07-20T13:21:47;3.08;;;1.33;;
45254;SDS011;30989;52.078;21.014;2023-07-20T13:24:12;2.00;;;1.02;;
45254;SDS011;30989;52.078;21.014;2023-07-20T13:26:38;5.55;;;1.70;;
45254;SDS011;30989;52.078;21.014;2023-07-20T13:29:03;2.03;;;1.13;;
45254;SDS011;30989;52.078;21.014;2023-07-20T13:31:29;4.07;;;1.42;;
45254;SDS011;30989;52.078;21.014;2023-07-20T13:33:54;2.33;;;1.15;;
45254;SDS011;30989;52.078;21.014;2023-07-20T13:36:21;3.20;;;1.20;;
45254;SDS011;30989;52.078;21.014;2023-07-20T13:38:47;2.65;;;1.20;;
45254;SDS011;30989;52.078;21.014;2023-07-20T13:41:13;1.90;;;0.90;;
45254;SDS011;30989;52.078;21.014;2023-07-20T13:43:40;5.45;;;2.03;;
45254;SDS011;30989;52.078;21.014;2023-07-20T13:46:05;2.67;;;1.15;;
45254;SDS011;30989;52.078;21.014;2023-07-20T13:48:31;4.05;;;1.42;;
45254;SDS011;30989;52.078;21.014;2023-07-20T13:50:56;3.50;;;1.52;;
45254;SDS011;30989;52.078;21.014;2023-07-20T13:53:22;2.20;;;1.17;;
45254;SDS011;30989;52.078;21.014;2023-07-20T13:55:47;2.90;;;1.40;;
45254;SDS011;30989;52.078;21.014;2023-07-20T13:58:13;2.15;;;1.10;;
45254;SDS011;30989;52.078;21.014;2023-07-20T14:00:39;1.80;;;0.80;;
45254;SDS011;30989;52.078;21.014;2023-07-20T14:03:05;3.00;;;1.10;;
45254;SDS011;30989;52.078;21.014;2023-07-20T14:05:30;4.05;;;1.02;;
45254;SDS011;30989;52.078;21.014;2023-07-20T14:07:55;9.88;;;2.30;;
45254;SDS011;30989;52.078;21.014;2023-07-20T14:10:21;1.67;;;0.82;;
45254;SDS011;30989;52.078;21.014;2023-07-20T14:12:46;2.10;;;1.02;;
45254;SDS011;30989;52.078;21.014;2023-07-20T14:15:12;2.50;;;1.27;;
45254;SDS011;30989;52.078;21.014;2023-07-20T14:17:37;1.30;;;0.80;;
45254;SDS011;30989;52.078;21.014;2023-07-20T14:20:03;2.08;;;1.05;;
45254;SDS011;30989;52.078;21.014;2023-07-20T14:22:31;2.95;;;1.15;;
45254;SDS011;30989;52.078;21.014;2023-07-20T14:24:57;2.15;;;1.08;;
45254;SDS011;30989;52.078;21.014;2023-07-20T14:27:24;3.30;;;0.90;;
45254;SDS011;30989;52.078;21.014;2023-07-20T14:29:49;2.58;;;1.35;;
45254;SDS011;30989;52.078;21.014;2023-07-20T14:32:15;3.60;;;1.02;;
45254;SDS011;30989;52.078;21.014;2023-07-20T14:34:40;3.42;;;1.00;;
45254;SDS011;30989;52.078;21.014;2023-07-20T14:37:06;2.70;;;1.13;;
45254;SDS011;30989;52.078;21.014;2023-07-20T14:39:31;1.73;;;0.80;;
45254;SDS011;30989;52.078;21.014;2023-07-20T14:41:57;1.88;;;1.00;;
45254;SDS011;30989;52.078;21.014;2023-07-20T14:44:23;2.95;;;0.90;;
45254;SDS011;30989;52.078;21.014;2023-07-20T14:46:48;2.42;;;1.00;;
45254;SDS011;30989;52.078;21.014;2023-07-20T14:49:13;2.53;;;0.90;;
45254;SDS011;30989;52.078;21.014;2023-07-20T14:51:39;2.50;;;0.80;;
45254;SDS011;30989;52.078;21.014;2023-07-20T14:54:08;2.05;;;1.08;;